Time;durP1;ratioP1;P1;durP2;ratioP2;P2;SDS_P1;SDS_P2;PMS_P1;PMS_P2;Temp;Humidity;BMP_temperature;BMP_pressure;BME280_temperature;BME280_humidity;BME280_pressure;Samples;Min_cycle;Max_cycle;Signal;HPM_P1;HPM_P2
2023/07/16 00:02:12;;;;;;;2.83;1.25;;;18.00;99.90;;;;;;5048366;28;20485;-59
2023/07/16 00:04:38;;;;;;;6.20;1.40;;;18.00;99.90;;;;;;5051800;28;20017;-58
2023/07/16 00:07:04;;;;;;;3.65;1.40;;;18.00;99.90;;;;;;5041308;28;20045;-57
2023/07/16 00:09:29;;;;;;;3.53;1.30;;;18.00;99.90;;;;;;5047411;28;20029;-60
2023/07/16 00:11:56;;;;;;;5.40;1.85;;;18.00;99.90;;;;;;5048003;28;20037;-58
2023/07/16 00:14:22;;;;;;;4.28;1.75;;;18.00;99.90;;;;;;5053043;28;20477;-59
2023/07/16 00:16:47;;;;;;;4.85;1.20;;;18.00;99.90;;;;;;5050595;28;20112;-59
2023/07/16 00:19:15;;;;;;;4.60;1.13;;;18.00;99.90;;;;;;5052037;28;20148;-59
2023/07/16 00:21:41;;;;;;;8.52;1.60;;;18.00;99.90;;;;;;5051361;28;20045;-59
2023/07/16 00:24:07;;;;;;;5.45;1.67;;;18.00;99.90;;;;;;5044272;28;20071;-59
2023/07/16 00:26:33;;;;;;;5.55;1.40;;;18.00;99.90;;;;;;5050312;28;20547;-57
2023/07/16 00:28:58;;;;;;;4.70;2.10;;;18.00;99.90;;;;;;5052675;28;20053;-57
2023/07/16 00:31:24;;;;;;;7.63;1.75;;;18.00;99.90;;;;;;5051651;28;20123;-58
2023/07/16 00:33:50;;;;;;;4.50;1.63;;;18.00;99.90;;;;;;5045947;28;20079;-58
2023/07/16 00:36:15;;;;;;;6.72;1.73;;;18.00;99.90;;;;;;5049294;28;20025;-60
2023/07/16 00:38:42;;;;;;;6.90;1.77;;;17.90;99.90;;;;;;5050636;28;20021;-56
2023/07/16 00:41:08;;;;;;;6.40;2.17;;;17.90;99.90;;;;;;5049382;28;20044;-58
2023/07/16 00:43:33;;;;;;;5.20;1.67;;;17.90;99.90;;;;;;5049690;28;20279;-59
2023/07/16 00:45:59;;;;;;;4.07;1.85;;;17.90;99.90;;;;;;5050977;28;20017;-59
2023/07/16 00:48:25;;;;;;;7.10;2.00;;;17.90;99.90;;;;;;5048368;28;20072;-58
2023/07/16 00:50:53;;;;;;;6.57;1.73;;;17.90;99.90;;;;;;5053968;28;20393;-59
2023/07/16 00:53:19;;;;;;;5.88;1.75;;;17.90;99.90;;;;;;5061859;28;20474;-59
2023/07/16 00:55:45;;;;;;;5.00;1.53;;;17.90;99.90;;;;;;5047066;28;20013;-59
2023/07/16 00:58:11;;;;;;;3.65;1.40;;;17.80;99.90;;;;;;5062796;28;20035;-59
2023/07/16 01:00:39;;;;;;;5.32;1.50;;;17.90;99.90;;;;;;5070819;28;20394;-61
2023/07/16 01:03:07;;;;;;;4.35;1.20;;;17.90;99.90;;;;;;5061682;28;20047;-58
2023/07/16 01:05:46;;;;;;;3.10;1.38;;;17.80;99.90;;;;;;5041727;28;20564;-59
2023/07/16 01:08:12;;;;;;;2.65;1.65;;;17.90;99.90;;;;;;5049365;28;20037;-59
2023/07/16 01:10:40;;;;;;;3.33;1.45;;;17.80;99.90;;;;;;5049382;28;20029;-59
2023/07/16 01:13:06;;;;;;;3.75;2.00;;;17.80;99.90;;;;;;5043563;28;20366;-59
2023/07/16 01:15:31;;;;;;;6.55;1.42;;;17.80;99.90;;;;;;5046804;28;20031;-59
2023/07/16 01:17:58;;;;;;;10.52;2.42;;;17.80;99.90;;;;;;5057791;28;20115;-59
2023/07/16 01:20:25;;;;;;;15.80;1.85;;;17.80;99.90;;;;;;5053158;28;20040;-60
2023/07/16 01:23:10;;;;;;;;;;;17.90;99.90;;;;;;5049557;28;20070;-58
2023/07/16 01:26:02;;;;;;;2.78;1.58;;;17.90;99.90;;;;;;5049829;28;19944;-59
2023/07/16 01:28:52;;;;;;;9.70;1.92;;;17.90;99.90;;;;;;5032988;28;20036;-59
2023/07/16 01:31:18;;;;;;;5.85;1.95;;;17.80;99.90;;;;;;5047462;28;20110;-58
2023/07/16 01:33:45;;;;;;;7.60;1.90;;;17.90;99.90;;;;;;5058569;28;20503;-55
2023/07/16 01:36:11;;;;;;;8.10;2.70;;;17.90;99.90;;;;;;5037348;28;20116;-59
2023/07/16 01:38:37;;;;;;;6.88;1.90;;;17.90;99.90;;;;;;5051102;28;20543;-57
2023/07/16 01:41:02;;;;;;;8.18;2.35;;;17.80;99.90;;;;;;5042960;28;20026;-58
2023/07/16 01:43:28;;;;;;;5.90;2.30;;;17.80;99.90;;;;;;5043655;28;20367;-57
2023/07/16 01:45:54;;;;;;;5.25;1.83;;;17.80;99.90;;;;;;5049379;28;20439;-58
2023/07/16 01:48:30;;;;;;;9.20;3.03;;;17.80;99.90;;;;;;5049667;28;20024;-59
2023/07/16 01:50:55;;;;;;;5.03;1.77;;;17.70;99.90;;;;;;5059450;28;20402;-58
2023/07/16 01:53:21;;;;;;;5.85;2.90;;;17.70;99.90;;;;;;5071765;28;20027;-58
2023/07/16 01:55:47;;;;;;;6.03;2.20;;;17.70;99.90;;;;;;5069054;28;20385;-57
2023/07/16 01:58:12;;;;;;;5.15;2.22;;;17.80;99.90;;;;;;5068392;28;20358;-60
2023/07/16 02:00:39;;;;;;;4.88;2.00;;;17.80;99.90;;;;;;5069393;28;20036;-59
2023/07/16 02:03:04;;;;;;;8.20;2.30;;;17.80;99.90;;;;;;5050341;28;20104;-58
2023/07/16 02:05:30;;;;;;;13.90;2.92;;;17.80;99.90;;;;;;5051764;28;20108;-58
2023/07/16 02:07:56;;;;;;;9.43;2.30;;;17.70;99.90;;;;;;5071147;28;20025;-58
2023/07/16 02:10:21;;;;;;;7.93;2.15;;;17.70;99.90;;;;;;5067769;28;20100;-59
2023/07/16 02:12:47;;;;;;;11.90;2.28;;;17.70;99.90;;;;;;5058442;28;20104;-59
2023/07/16 02:15:13;;;;;;;5.40;2.40;;;17.70;99.90;;;;;;5069587;28;20616;-56
2023/07/16 02:17:38;;;;;;;5.68;2.47;;;17.70;99.90;;;;;;5057868;28;20045;-58
2023/07/16 02:20:05;;;;;;;6.80;2.45;;;17.60;99.90;;;;;;5052470;28;20022;-57
2023/07/16 02:22:31;;;;;;;5.17;2.73;;;17.60;99.90;;;;;;5052290;28;20410;-58
2023/07/16 02:24:56;;;;;;;7.88;2.72;;;17.60;99.90;;;;;;5052030;28;20059;-59
2023/07/16 02:27:22;;;;;;;6.30;2.00;;;17.60;99.90;;;;;;5047682;28;20040;-59
2023/07/16 02:29:48;;;;;;;10.55;2.50;;;17.60;99.90;;;;;;5048696;28;20492;-58
2023/07/16 02:32:14;;;;;;;11.15;2.45;;;17.60;99.90;;;;;;5063591;28;20033;-57
2023/07/16 02:34:40;;;;;;;8.13;2.10;;;17.60;99.90;;;;;;5050277;28;20025;-58
2023/07/16 02:37:05;;;;;;;8.07;2.40;;;17.60;99.90;;;;;;5052165;28;20036;-59
2023/07/16 02:39:31;;;;;;;5.65;2.47;;;17.60;99.90;;;;;;5054364;28;20029;-56
2023/07/16 02:41:57;;;;;;;9.60;2.47;;;17.50;99.90;;;;;;5048304;28;20393;-58
2023/07/16 02:44:22;;;;;;;32.63;3.88;;;17.60;99.90;;;;;;5049780;28;20025;-59
2023/07/16 02:46:48;;;;;;;6.65;2.10;;;17.60;99.90;;;;;;5051918;28;20025;-58
2023/07/16 02:49:13;;;;;;;6.88;2.15;;;17.60;99.90;;;;;;5055417;28;20477;-58
2023/07/16 02:51:39;;;;;;;5.63;2.50;;;17.60;99.90;;;;;;5054958;28;20103;-60
2023/07/16 02:54:05;;;;;;;10.48;3.15;;;17.50;99.90;;;;;;5065901;28;20037;-58
2023/07/16 02:56:30;;;;;;;6.97;3.28;;;17.60;99.90;;;;;;5059566;28;20035;-58
2023/07/16 02:58:56;;;;;;;6.68;2.65;;;17.50;99.90;;;;;;5055141;28;20029;-60
2023/07/16 03:01:21;;;;;;;5.80;2.22;;;17.50;99.90;;;;;;5065145;28;20077;-54
2023/07/16 03:03:47;;;;;;;6.97;2.15;;;17.50;99.90;;;;;;5054202;28;20413;-58
2023/07/16 03:06:13;;;;;;;10.30;2.78;;;17.50;99.90;;;;;;5055195;28;20036;-58
2023/07/16 03:08:38;;;;;;;3.88;1.92;;;17.50;99.90;;;;;;5055175;28;20032;-56
2023/07/16 03:11:04;;;;;;;7.03;3.15;;;17.60;99.90;;;;;;5060808;28;20466;-58
2023/07/16 03:13:30;;;;;;;12.63;2.35;;;17.60;99.90;;;;;;5070937;28;20036;-61
2023/07/16 03:15:56;;;;;;;7.25;2.20;;;17.50;99.90;;;;;;5069693;28;20523;-59
2023/07/16 03:18:29;;;;;;;6.70;2.03;;;17.50;99.90;;;;;;5058510;28;20489;-57
2023/07/16 03:20:56;;;;;;;6.82;2.42;;;17.50;99.90;;;;;;5055216;28;20511;-59
2023/07/16 03:23:22;;;;;;;4.90;1.80;;;17.50;99.90;;;;;;5054801;28;20118;-59
2023/07/16 03:25:48;;;;;;;6.55;2.10;;;17.50;99.90;;;;;;5061756;28;20389;-57
2023/07/16 03:28:13;;;;;;;6.30;2.10;;;17.50;99.90;;;;;;5052604;28;20029;-58
2023/07/16 03:30:39;;;;;;;9.88;2.70;;;17.40;99.90;;;;;;5062831;28;20025;-58
2023/07/16 03:33:05;;;;;;;6.85;2.65;;;17.40;99.90;;;;;;5065989;28;20021;-58
2023/07/16 03:35:31;;;;;;;9.52;2.85;;;17.50;99.90;;;;;;5053998;28;20028;-59
2023/07/16 03:37:57;;;;;;;5.53;2.67;;;17.50;99.90;;;;;;5034587;28;20045;-59
2023/07/16 03:40:26;;;;;;;6.47;2.67;;;17.50;99.90;;;;;;5038864;28;20021;-59
2023/07/16 03:42:52;;;;;;;4.18;2.35;;;17.50;99.90;;;;;;5054779;28;20025;-59
2023/07/16 03:45:18;;;;;;;11.68;2.58;;;17.50;99.90;;;;;;5052345;28;20426;-57
2023/07/16 03:47:45;;;;;;;11.05;2.78;;;17.40;99.90;;;;;;5056054;28;20370;-58
2023/07/16 03:50:10;;;;;;;7.78;2.75;;;17.50;99.90;;;;;;5051906;28;20028;-58
2023/07/16 03:52:36;;;;;;;11.82;3.35;;;17.40;99.90;;;;;;5071884;28;20032;-58
2023/07/16 03:55:02;;;;;;;6.55;1.83;;;17.50;99.90;;;;;;5058696;28;20070;-56
2023/07/16 03:57:29;;;;;;;7.30;2.20;;;17.50;99.90;;;;;;5051371;28;20025;-58
2023/07/16 03:59:54;;;;;;;2.42;1.83;;;17.50;99.90;;;;;;5045608;28;20068;-57
2023/07/16 04:02:20;;;;;;;7.78;2.70;;;17.50;99.90;;;;;;5044956;28;20413;-58
2023/07/16 04:04:46;;;;;;;4.63;2.53;;;17.50;99.90;;;;;;5052191;28;20020;-58
2023/07/16 04:07:12;;;;;;;5.22;2.22;;;17.50;99.90;;;;;;5047003;28;20093;-58
2023/07/16 04:09:38;;;;;;;12.73;3.08;;;17.50;99.90;;;;;;5041312;28;20104;-57
2023/07/16 04:12:05;;;;;;;6.05;2.40;;;17.50;99.90;;;;;;5073895;28;20032;-57
2023/07/16 04:14:31;;;;;;;4.00;2.58;;;17.40;99.90;;;;;;5054274;28;20057;-58
2023/07/16 04:16:57;;;;;;;13.13;2.92;;;17.40;99.90;;;;;;5051225;28;20492;-56
2023/07/16 04:19:22;;;;;;;11.40;3.90;;;17.40;99.90;;;;;;5052734;28;20179;-58
2023/07/16 04:21:48;;;;;;;4.63;2.33;;;17.50;99.90;;;;;;5053546;28;20078;-58
2023/07/16 04:24:14;;;;;;;5.40;2.55;;;17.50;99.90;;;;;;5052600;28;20120;-57
2023/07/16 04:26:39;;;;;;;6.93;2.95;;;17.50;99.90;;;;;;5059222;28;20029;-58
2023/07/16 04:29:05;;;;;;;13.90;3.03;;;17.40;99.90;;;;;;5053577;28;20040;-58
2023/07/16 04:31:30;;;;;;;9.52;2.20;;;17.40;99.90;;;;;;5053986;28;20029;-58
2023/07/16 04:33:56;;;;;;;8.15;2.70;;;17.40;99.90;;;;;;5057373;28;20043;-57
2023/07/16 04:36:22;;;;;;;8.68;2.65;;;17.50;99.90;;;;;;5053032;28;20032;-57
2023/07/16 04:38:47;;;;;;;7.43;3.35;;;17.40;99.90;;;;;;5051998;28;20469;-58
2023/07/16 04:41:13;;;;;;;8.55;3.30;;;17.40;99.90;;;;;;5060259;28;20033;-58
2023/07/16 04:43:39;;;;;;;6.70;2.95;;;17.40;99.90;;;;;;5073293;28;20081;-57
2023/07/16 04:46:05;;;;;;;5.45;2.78;;;17.40;99.90;;;;;;5073315;28;20538;-58
2023/07/16 04:48:31;;;;;;;6.45;2.83;;;17.40;99.90;;;;;;5055792;28;20021;-58
2023/07/16 04:50:56;;;;;;;4.95;2.53;;;17.50;99.90;;;;;;5052504;28;20024;-59
2023/07/16 04:53:22;;;;;;;10.32;2.95;;;17.50;99.90;;;;;;5053154;28;20017;-59
2023/07/16 04:55:48;;;;;;;8.85;2.50;;;17.40;99.90;;;;;;5058344;28;20031;-58
2023/07/16 04:58:14;;;;;;;9.20;3.28;;;17.50;99.90;;;;;;5052823;28;20508;-56
2023/07/16 05:00:40;;;;;;;6.45;2.72;;;17.50;99.90;;;;;;5052249;28;20474;-58
2023/07/16 05:03:05;;;;;;;13.70;3.55;;;17.60;99.90;;;;;;5058020;28;20022;-57
2023/07/16 05:05:31;;;;;;;7.43;3.00;;;17.50;99.90;;;;;;5055383;28;20047;-58
2023/07/16 05:07:57;;;;;;;6.70;2.28;;;17.60;99.90;;;;;;5058237;28;20041;-58
2023/07/16 05:10:22;;;;;;;9.57;3.28;;;17.50;99.90;;;;;;5048558;28;20040;-57
2023/07/16 05:12:48;;;;;;;7.68;2.92;;;17.50;99.90;;;;;;5048363;28;20064;-59
2023/07/16 05:15:14;;;;;;;9.05;3.05;;;17.60;99.90;;;;;;5050691;28;20029;-55
2023/07/16 05:17:43;;;;;;;5.00;2.50;;;17.60;99.90;;;;;;5052514;28;20029;-57
2023/07/16 05:20:09;;;;;;;7.57;3.03;;;17.60;99.90;;;;;;5049320;28;20033;-59
2023/07/16 05:22:35;;;;;;;11.98;2.75;;;17.70;99.90;;;;;;5042870;28;20037;-59
2023/07/16 05:25:01;;;;;;;4.50;2.80;;;17.70;99.90;;;;;;5045109;28;20369;-58
2023/07/16 05:27:28;;;;;;;5.15;3.33;;;17.70;99.90;;;;;;5046971;28;20480;-59
2023/07/16 05:29:53;;;;;;;13.77;3.00;;;17.70;99.90;;;;;;5051230;28;20108;-58
2023/07/16 05:32:19;;;;;;;5.07;3.33;;;17.80;99.90;;;;;;5052759;28;20609;-58
2023/07/16 05:34:44;;;;;;;5.53;3.15;;;17.70;99.90;;;;;;5051004;28;20074;-57
2023/07/16 05:37:11;;;;;;;7.57;3.30;;;17.90;99.90;;;;;;5050397;28;20025;-57
2023/07/16 05:39:37;;;;;;;9.25;3.65;;;18.00;99.90;;;;;;5052602;28;20537;-57
2023/07/16 05:42:04;;;;;;;8.50;3.50;;;18.10;99.90;;;;;;5059764;28;20415;-57
2023/07/16 05:44:29;;;;;;;8.20;3.00;;;18.20;99.90;;;;;;5050948;28;20017;-57
2023/07/16 05:46:55;;;;;;;5.30;3.03;;;18.20;99.90;;;;;;5052394;28;20082;-57
2023/07/16 05:49:21;;;;;;;6.78;3.70;;;18.30;99.90;;;;;;5050842;28;20021;-56
2023/07/16 05:51:46;;;;;;;12.88;2.83;;;18.30;99.90;;;;;;5052455;28;20025;-58
2023/07/16 05:54:12;;;;;;;8.25;2.90;;;18.30;99.90;;;;;;5051306;28;20123;-55
2023/07/16 05:56:37;;;;;;;9.57;3.13;;;18.20;99.90;;;;;;5052137;28;20500;-59
2023/07/16 05:59:03;;;;;;;9.70;3.72;;;18.30;99.90;;;;;;5050831;28;20036;-57
2023/07/16 06:01:29;;;;;;;8.85;2.90;;;18.30;99.90;;;;;;5050108;28;20492;-56
2023/07/16 06:03:54;;;;;;;8.27;3.58;;;18.30;99.90;;;;;;5049577;28;20389;-57
2023/07/16 06:06:20;;;;;;;6.32;3.08;;;18.40;99.90;;;;;;5049939;28;20478;-58
2023/07/16 06:08:46;;;;;;;6.75;2.95;;;18.40;99.90;;;;;;5048444;28;20029;-58
2023/07/16 06:11:12;;;;;;;8.57;3.53;;;18.50;99.90;;;;;;5047997;28;20029;-58
2023/07/16 06:13:38;;;;;;;8.82;3.40;;;18.50;99.90;;;;;;5055674;28;20056;-58
2023/07/16 06:16:04;;;;;;;9.63;4.18;;;18.50;99.90;;;;;;5051795;28;20462;-59
2023/07/16 06:18:30;;;;;;;10.57;3.17;;;18.50;99.90;;;;;;5054835;28;20460;-57
2023/07/16 06:20:56;;;;;;;14.55;3.50;;;18.50;99.90;;;;;;5052111;28;20029;-57
2023/07/16 06:23:21;;;;;;;11.20;3.85;;;18.70;99.90;;;;;;5054036;28;20020;-58
2023/07/16 06:25:48;;;;;;;6.45;2.78;;;18.80;99.90;;;;;;5052315;28;20405;-60
2023/07/16 06:28:15;;;;;;;9.65;2.92;;;19.00;99.90;;;;;;5050662;28;20044;-57
2023/07/16 06:30:40;;;;;;;6.13;3.05;;;19.20;99.90;;;;;;5050880;28;20032;-60
2023/07/16 06:33:06;;;;;;;10.65;3.15;;;19.50;99.90;;;;;;5050074;28;20051;-54
2023/07/16 06:35:32;;;;;;;7.70;3.17;;;19.80;99.90;;;;;;5039751;28;20036;-57
2023/07/16 06:37:58;;;;;;;8.90;3.75;;;19.90;99.90;;;;;;5046767;28;20032;-56
2023/07/16 06:40:24;;;;;;;6.15;3.47;;;20.10;99.90;;;;;;5055478;28;20032;-58
2023/07/16 06:42:50;;;;;;;9.82;3.30;;;20.10;99.90;;;;;;5055996;28;20100;-59
2023/07/16 06:45:17;;;;;;;11.13;3.40;;;20.20;99.90;;;;;;5051161;28;20099;-58
2023/07/16 06:47:43;;;;;;;;;;;20.40;99.90;;;;;;5054567;28;20048;-57
2023/07/16 06:50:09;;;;;;;9.27;3.13;;;20.80;99.90;;;;;;5054971;28;19909;-58
2023/07/16 06:52:35;;;;;;;8.55;3.53;;;21.20;99.90;;;;;;5053722;28;20508;-58
2023/07/16 06:55:00;;;;;;;7.43;2.65;;;21.80;99.90;;;;;;5054900;28;20017;-57
2023/07/16 06:57:26;;;;;;;10.38;3.65;;;22.00;99.90;;;;;;5049262;28;20061;-58
2023/07/16 06:59:52;;;;;;;9.50;4.00;;;21.80;99.90;;;;;;5053644;28;20032;-58
2023/07/16 07:02:18;;;;;;;8.57;3.08;;;22.00;99.90;;;;;;5052280;28;20108;-60
2023/07/16 07:04:44;;;;;;;5.75;3.35;;;21.70;99.90;;;;;;5055291;28;20021;-58
2023/07/16 07:07:10;;;;;;;8.90;3.72;;;21.10;99.90;;;;;;5050170;28;20741;-58
2023/07/16 07:09:35;;;;;;;9.82;3.65;;;20.50;99.90;;;;;;5045755;28;20466;-55
2023/07/16 07:12:01;;;;;;;13.73;4.10;;;20.40;99.90;;;;;;5049954;28;20111;-50
2023/07/16 07:14:27;;;;;;;6.95;2.80;;;21.20;99.90;;;;;;5055165;28;20025;-58
2023/07/16 07:16:53;;;;;;;9.38;3.47;;;21.80;99.90;;;;;;5051361;28;20085;-57
2023/07/16 07:19:18;;;;;;;8.00;3.17;;;22.40;99.90;;;;;;5054039;28;20043;-58
2023/07/16 07:21:44;;;;;;;9.45;2.67;;;22.50;99.90;;;;;;5052599;28;20017;-58
2023/07/16 07:24:09;;;;;;;7.65;3.70;;;22.40;99.90;;;;;;5053845;28;20048;-59
2023/07/16 07:26:35;;;;;;;12.20;3.33;;;22.40;99.90;;;;;;5054890;28;20477;-58
2023/07/16 07:29:01;;;;;;;6.10;2.92;;;22.20;99.90;;;;;;5054877;28;20048;-58
2023/07/16 07:31:26;;;;;;;9.75;3.53;;;22.00;99.90;;;;;;5052778;28;20089;-58
2023/07/16 07:33:53;;;;;;;7.55;3.40;;;21.40;99.90;;;;;;5053449;28;20078;-57
2023/07/16 07:36:19;;;;;;;7.17;3.37;;;20.80;99.90;;;;;;5053772;28;20030;-57
2023/07/16 07:38:45;;;;;;;10.40;4.43;;;20.40;99.90;;;;;;5052177;28;20287;-56
2023/07/16 07:41:10;;;;;;;10.02;3.60;;;20.00;99.90;;;;;;5054501;28;20492;-58
2023/07/16 07:43:36;;;;;;;5.90;3.78;;;19.80;99.90;;;;;;5048304;28;20424;-58
2023/07/16 07:46:02;;;;;;;9.52;3.72;;;19.70;99.90;;;;;;5051958;28;20516;-56
2023/07/16 07:48:27;;;;;;;7.72;3.67;;;19.80;99.90;;;;;;5054570;28;20021;-59
2023/07/16 07:50:53;;;;;;;11.57;3.78;;;20.10;99.90;;;;;;5053712;28;20059;-57
2023/07/16 07:53:19;;;;;;;11.02;3.30;;;20.40;99.90;;;;;;5051668;28;20045;-58
2023/07/16 07:55:45;;;;;;;6.20;3.75;;;20.70;99.90;;;;;;5054322;28;20478;-56
2023/07/16 07:58:11;;;;;;;6.13;3.47;;;20.70;99.90;;;;;;5054191;28;20025;-57
2023/07/16 08:00:37;;;;;;;11.43;4.20;;;20.70;99.90;;;;;;5054358;28;20029;-57
2023/07/16 08:03:03;;;;;;;6.38;3.22;;;20.80;99.90;;;;;;5050044;28;20028;-57
2023/07/16 08:05:28;;;;;;;11.15;3.65;;;20.70;99.90;;;;;;5051903;28;20074;-58
2023/07/16 08:07:55;;;;;;;12.32;3.70;;;20.70;99.90;;;;;;5049748;28;20029;-56
2023/07/16 08:10:21;;;;;;;9.13;3.28;;;20.50;99.90;;;;;;5047126;28;20025;-57
2023/07/16 08:12:47;;;;;;;5.45;3.20;;;20.30;99.90;;;;;;5047028;28;20477;-59
2023/07/16 08:15:14;;;;;;;7.28;3.17;;;20.30;99.90;;;;;;5046595;28;20038;-56
2023/07/16 08:17:44;;;;;;;;;;;20.30;99.90;;;;;;5041192;28;20024;-56
2023/07/16 08:20:10;;;;;;;7.88;2.85;;;20.50;99.90;;;;;;5048787;28;20369;-58
2023/07/16 08:22:36;;;;;;;9.20;4.25;;;20.80;99.90;;;;;;5055514;28;20025;-58
2023/07/16 08:25:03;;;;;;;9.85;4.03;;;21.20;99.90;;;;;;5062829;28;20137;-57
2023/07/16 08:27:29;;;;;;;10.93;3.58;;;21.30;99.90;;;;;;5055856;28;20029;-58
2023/07/16 08:29:55;;;;;;;7.53;3.45;;;21.30;99.90;;;;;;5049236;28;20504;-58
2023/07/16 08:32:21;;;;;;;11.52;3.83;;;21.20;99.90;;;;;;5048773;28;20017;-57
2023/07/16 08:34:47;;;;;;;10.43;3.33;;;20.90;99.90;;;;;;5058600;28;20028;-57
2023/07/16 08:37:13;;;;;;;5.97;3.25;;;20.60;99.90;;;;;;5068895;28;20555;-54
2023/07/16 08:39:39;;;;;;;10.05;3.28;;;20.30;99.90;;;;;;5040014;28;20021;-61
2023/07/16 08:42:05;;;;;;;7.38;3.30;;;20.50;99.90;;;;;;5051147;28;20025;-59
2023/07/16 08:44:32;;;;;;;7.88;3.40;;;20.90;99.90;;;;;;5048848;28;20036;-56
2023/07/16 08:46:59;;;;;;;6.83;3.13;;;21.10;99.90;;;;;;5048102;28;20076;-57
2023/07/16 08:49:29;;;;;;;9.07;2.92;;;21.20;99.90;;;;;;5051112;28;20656;-57
2023/07/16 08:51:56;;;;;;;9.80;3.25;;;21.30;99.90;;;;;;5045913;28;20078;-57
2023/07/16 08:54:22;;;;;;;6.22;3.42;;;21.30;99.90;;;;;;5052787;28;20033;-57
2023/07/16 08:56:48;;;;;;;12.38;4.07;;;21.50;99.90;;;;;;5052113;28;20024;-57
2023/07/16 08:59:18;;;;;;;11.05;3.83;;;21.50;99.90;;;;;;5056104;28;20542;-57
2023/07/16 09:01:45;;;;;;;7.90;3.30;;;21.50;99.90;;;;;;5051848;28;20017;-58
2023/07/16 09:04:11;;;;;;;7.35;3.58;;;21.40;99.90;;;;;;5050523;28;20033;-57
2023/07/16 09:06:37;;;;;;;10.95;3.63;;;21.40;99.90;;;;;;5052256;28;20120;-57
2023/07/16 09:09:02;;;;;;;19.33;3.90;;;21.20;99.90;;;;;;5049321;28;20029;-57
2023/07/16 09:11:28;;;;;;;11.27;3.45;;;21.10;99.90;;;;;;5050470;28;20032;-56
2023/07/16 09:13:54;;;;;;;8.65;3.72;;;20.80;99.90;;;;;;5052853;28;20146;-56
2023/07/16 09:16:20;;;;;;;10.50;3.85;;;20.70;99.90;;;;;;5050047;28;20024;-57
2023/07/16 09:18:47;;;;;;;6.82;3.60;;;20.60;99.90;;;;;;5039313;28;20052;-57
2023/07/16 09:21:13;;;;;;;9.02;3.85;;;20.60;99.90;;;;;;5062596;28;20114;-57
2023/07/16 09:23:39;;;;;;;7.72;3.05;;;20.60;99.90;;;;;;5061816;28;20385;-58
2023/07/16 09:26:05;;;;;;;7.57;3.47;;;20.70;99.90;;;;;;5052839;28;20020;-58
2023/07/16 09:28:31;;;;;;;5.68;3.20;;;20.70;99.90;;;;;;5051610;28;20028;-57
2023/07/16 09:31:07;;;;;;;5.85;3.08;;;20.80;99.90;;;;;;5047384;28;20016;-55
2023/07/16 09:33:34;;;;;;;9.13;3.50;;;21.00;99.90;;;;;;5067267;28;20429;-59
2023/07/16 09:36:00;;;;;;;6.78;3.40;;;21.00;99.90;;;;;;5056466;28;20021;-57
2023/07/16 09:38:27;;;;;;;7.88;3.65;;;21.00;99.90;;;;;;5052450;28;20035;-58
2023/07/16 09:40:55;;;;;;;6.68;2.42;;;20.90;99.90;;;;;;5052480;28;20035;-60
2023/07/16 09:43:21;;;;;;;11.43;3.70;;;20.70;99.90;;;;;;5058531;28;20150;-56
2023/07/16 09:45:47;;;;;;;5.38;2.90;;;20.60;99.90;;;;;;5045945;28;20017;-56
2023/07/16 09:48:13;;;;;;;5.25;3.10;;;20.60;99.90;;;;;;5044792;28;20025;-57
2023/07/16 09:50:46;;;;;;;4.57;3.20;;;20.60;99.90;;;;;;5058180;28;20017;-57
2023/07/16 09:53:12;;;;;;;9.90;3.03;;;20.50;99.90;;;;;;5061984;28;20060;-58
2023/07/16 09:55:39;;;;;;;6.43;3.22;;;20.60;99.90;;;;;;5055962;28;20482;-55
2023/07/16 09:58:09;;;;;;;9.23;3.28;;;20.90;99.90;;;;;;5057047;28;20024;-57
2023/07/16 10:00:37;;;;;;;6.63;3.08;;;21.30;99.90;;;;;;5055666;28;20024;-59
2023/07/16 10:03:05;;;;;;;8.65;3.28;;;21.80;99.90;;;;;;5069432;28;20025;-56
2023/07/16 10:05:31;;;;;;;6.63;3.60;;;22.00;99.90;;;;;;5056347;28;20021;-56
2023/07/16 10:08:00;;;;;;;8.70;3.72;;;22.00;99.90;;;;;;5054904;28;20529;-57
2023/07/16 10:10:51;;;;;;;6.72;2.97;;;21.80;99.90;;;;;;5063285;28;20029;-54
2023/07/16 10:13:17;;;;;;;4.78;2.83;;;21.40;99.90;;;;;;5076334;28;20052;-57
2023/07/16 10:15:57;;;;;;;8.20;3.13;;;21.30;99.90;;;;;;5061095;28;20063;-59
2023/07/16 10:18:33;;;;;;;6.57;3.10;;;21.20;99.90;;;;;;5055896;28;20135;-57
2023/07/16 10:21:09;;;;;;;8.17;3.23;;;21.20;99.90;;;;;;5068445;28;20480;-56
2023/07/16 10:23:42;;;;;;;8.88;2.83;;;21.20;99.90;;;;;;5076009;28;20480;-57
2023/07/16 10:26:12;;;;;;;8.63;3.28;;;21.10;99.90;;;;;;5056659;28;20025;-57
2023/07/16 10:28:38;;;;;;;7.63;3.15;;;21.30;99.90;;;;;;5049838;28;20021;-60
2023/07/16 10:31:07;;;;;;;6.35;3.33;;;21.40;99.90;;;;;;5049249;28;20447;-57
2023/07/16 10:33:33;;;;;;;5.72;3.47;;;21.50;99.90;;;;;;5055798;28;20439;-58
2023/07/16 10:36:00;;;;;;;8.82;3.72;;;21.60;99.90;;;;;;5054916;28;20028;-60
2023/07/16 10:38:25;;;;;;;4.25;2.55;;;21.50;99.90;;;;;;5060099;28;20101;-58
2023/07/16 10:40:51;;;;;;;10.20;3.00;;;21.30;99.90;;;;;;5075671;28;20423;-55
2023/07/16 10:43:17;;;;;;;9.40;3.00;;;21.40;99.90;;;;;;5055543;28;20027;-57
2023/07/16 10:45:45;;;;;;;9.13;3.70;;;21.60;99.90;;;;;;5056453;28;20495;-57
2023/07/16 10:48:10;;;;;;;5.25;2.95;;;21.60;99.90;;;;;;5055529;28;20079;-56
2023/07/16 10:50:36;;;;;;;5.05;3.03;;;21.50;99.90;;;;;;5055765;28;20029;-57
2023/07/16 10:53:02;;;;;;;5.57;2.30;;;21.50;99.90;;;;;;5052752;28;20037;-57
2023/07/16 10:55:29;;;;;;;4.03;2.20;;;21.40;99.90;;;;;;5067332;28;20115;-58
2023/07/16 10:57:56;;;;;;;8.43;2.30;;;21.60;99.90;;;;;;5071648;28;20021;-57
2023/07/16 11:00:22;;;;;;;3.42;1.80;;;21.90;99.90;;;;;;5060235;28;20033;-56
2023/07/16 11:02:50;;;;;;;2.67;1.50;;;22.30;99.90;;;;;;5054743;28;20029;-57
2023/07/16 11:05:18;;;;;;;8.60;2.10;;;22.30;99.90;;;;;;5035358;28;20017;-55
2023/07/16 11:07:48;;;;;;;7.38;1.70;;;22.20;99.90;;;;;;5035556;28;20013;-57
2023/07/16 11:10:16;;;;;;;3.08;1.77;;;22.30;99.90;;;;;;5049909;28;20025;-56
2023/07/16 11:12:42;;;;;;;9.15;2.55;;;22.50;99.90;;;;;;5072983;28;20082;-54
2023/07/16 11:15:08;;;;;;;5.85;2.20;;;22.70;99.90;;;;;;5060345;28;20124;-55
2023/07/16 11:17:37;;;;;;;6.78;2.20;;;22.50;99.90;;;;;;5055215;28;20025;-54
2023/07/16 11:20:04;;;;;;;4.60;1.40;;;22.40;99.90;;;;;;5060673;28;20036;-55
2023/07/16 11:22:29;;;;;;;7.03;2.00;;;22.20;99.90;;;;;;5074955;28;20029;-55
2023/07/16 11:24:55;;;;;;;2.50;1.65;;;22.10;99.90;;;;;;5073538;28;20025;-55
2023/07/16 11:27:26;;;;;;;7.72;2.80;;;22.00;99.90;;;;;;5074892;28;20024;-54
2023/07/16 11:30:00;;;;;;;4.93;2.10;;;22.00;99.90;;;;;;5063647;28;20029;-54
2023/07/16 11:32:47;;;;;;;7.93;2.25;;;22.00;99.90;;;;;;5052999;28;20036;-54
2023/07/16 11:35:17;;;;;;;6.70;1.98;;;21.90;99.90;;;;;;5072329;28;20024;-42
2023/07/16 11:37:44;;;;;;;4.40;1.88;;;21.80;99.90;;;;;;5054590;28;20033;-48
2023/07/16 11:40:14;;;;;;;3.20;1.83;;;21.70;99.90;;;;;;5060898;28;20151;-47
2023/07/16 11:42:41;;;;;;;6.72;2.00;;;21.70;99.90;;;;;;5046144;28;20033;-44
2023/07/16 11:45:19;;;;;;;4.75;2.10;;;21.80;99.90;;;;;;5050105;28;20094;-45
2023/07/16 11:47:45;;;;;;;5.90;2.47;;;21.90;99.90;;;;;;5054628;28;20021;-50
2023/07/16 11:50:11;;;;;;;4.63;1.65;;;22.10;99.90;;;;;;5053360;28;20501;-52
2023/07/16 11:52:38;;;;;;;8.10;1.85;;;22.40;99.90;;;;;;5050997;28;20025;-44
2023/07/16 11:55:04;;;;;;;7.15;1.60;;;22.60;99.90;;;;;;5054510;28;20496;-51
2023/07/16 11:57:30;;;;;;;3.47;1.80;;;22.80;99.90;;;;;;5054439;28;20522;-47
2023/07/16 11:59:56;;;;;;;3.80;1.73;;;22.90;99.90;;;;;;5048117;28;20104;-48
2023/07/16 12:02:22;;;;;;;3.50;1.55;;;22.80;99.90;;;;;;5043270;28;20067;-46
2023/07/16 12:04:48;;;;;;;4.85;1.45;;;22.90;99.90;;;;;;5055096;28;20024;-46
2023/07/16 12:07:14;;;;;;;3.85;1.67;;;23.00;99.90;;;;;;5072063;28;20485;-48
2023/07/16 12:09:40;;;;;;;4.22;1.60;;;23.30;99.90;;;;;;5068816;28;20035;-43
2023/07/16 12:12:06;;;;;;;6.47;1.52;;;23.40;99.90;;;;;;5070664;28;20032;-45
2023/07/16 12:14:32;;;;;;;3.17;1.30;;;23.60;99.90;;;;;;5051094;28;20362;-47
2023/07/16 12:16:58;;;;;;;8.90;1.88;;;23.80;99.90;;;;;;5047038;28;20507;-47
2023/07/16 12:19:25;;;;;;;4.97;1.50;;;23.90;99.90;;;;;;5048683;28;20112;-46
2023/07/16 12:21:51;;;;;;;4.25;1.70;;;24.10;99.90;;;;;;5054168;28;20033;-51
2023/07/16 12:24:17;;;;;;;2.50;1.48;;;24.00;99.90;;;;;;5051754;28;20028;-50
2023/07/16 12:26:42;;;;;;;4.90;1.52;;;24.00;99.90;;;;;;5051691;28;20032;-45
2023/07/16 12:29:08;;;;;;;6.93;1.50;;;24.00;99.90;;;;;;5052634;28;20021;-41
2023/07/16 12:31:34;;;;;;;4.53;1.42;;;23.80;99.90;;;;;;5064218;28;20057;-46
2023/07/16 12:34:04;;;;;;;2.92;1.17;;;23.50;99.90;;;;;;5042227;28;20044;-52
2023/07/16 12:36:30;;;;;;;3.03;1.70;;;23.40;99.90;;;;;;5051924;28;20546;-51
2023/07/16 12:38:56;;;;;;;2.85;1.60;;;23.50;99.90;;;;;;5052041;28;20028;-50
2023/07/16 12:41:21;;;;;;;3.13;1.27;;;23.70;99.90;;;;;;5052156;28;20016;-46
2023/07/16 12:43:47;;;;;;;6.45;1.50;;;23.90;99.90;;;;;;5051372;28;20592;-43